Time;durP1;ratioP1;P1;durP2;ratioP2;P2;SDS_P1;SDS_P2;PMS_P1;PMS_P2;Temp;Humidity;BMP_temperature;BMP_pressure;BME280_temperature;BME280_humidity;BME280_pressure;Samples;Min_cycle;Max_cycle;Signal;HPM_P1;HPM_P2
2022/08/22 00:02:27;;;;;;;11.73;4.97;;;18.60;66.10;;;;;;4944077;28;20507;-71
2022/08/22 00:05:19;;;;;;;5.83;4.33;;;18.70;65.80;;;;;;4949193;29;20580;-72
2022/08/22 00:07:54;;;;;;;7.57;4.90;;;18.70;65.80;;;;;;4942681;29;20481;-70
2022/08/22 00:10:26;;;;;;;7.13;4.93;;;18.70;65.80;;;;;;4949563;29;20483;-71
2022/08/22 00:13:06;;;;;;;7.40;4.87;;;18.60;66.10;;;;;;4944972;29;20429;-72
2022/08/22 00:15:36;;;;;;;7.37;4.70;;;18.50;66.00;;;;;;4941008;29;20429;-71
2022/08/22 00:18:28;;;;;;;9.53;4.90;;;18.50;66.30;;;;;;4947863;28;20460;-72
2022/08/22 00:21:11;;;;;;;11.50;5.80;;;18.50;65.60;;;;;;4943527;29;20433;-71
2022/08/22 00:24:01;;;;;;;6.37;4.77;;;18.50;65.30;;;;;;5044745;28;20429;-71
2022/08/22 00:26:30;;;;;;;10.37;5.30;;;18.50;65.60;;;;;;5036765;28;20429;-71
2022/08/22 00:29:03;;;;;;;8.50;5.30;;;18.60;65.60;;;;;;5042513;28;20522;-71
2022/08/22 00:31:52;;;;;;;9.70;5.37;;;18.50;66.30;;;;;;5044374;28;20424;-71
2022/08/22 00:34:24;;;;;;;7.47;5.10;;;18.40;66.70;;;;;;5035001;28;20437;-71
2022/08/22 00:37:06;;;;;;;10.47;4.67;;;18.50;66.30;;;;;;5043752;28;20449;-72
2022/08/22 00:39:46;;;;;;;8.60;4.60;;;18.60;66.00;;;;;;5035416;28;20467;-71
2022/08/22 00:42:30;;;;;;;7.10;4.80;;;18.60;66.10;;;;;;5041911;28;20428;-70
2022/08/22 00:45:20;;;;;;;9.27;4.83;;;18.50;66.10;;;;;;5037935;28;20728;-71
2022/08/22 00:47:51;;;;;;;6.67;4.67;;;18.50;66.60;;;;;;5046753;28;20539;-71
2022/08/22 00:50:38;;;;;;;9.47;4.50;;;18.50;66.70;;;;;;5044760;28;20456;-72
2022/08/22 00:53:34;;;;;;;8.57;4.93;;;18.50;66.90;;;;;;5039967;28;20408;-71
2022/08/22 00:56:19;;;;;;;6.43;4.60;;;18.40;67.20;;;;;;5049000;28;20429;-70
2022/08/22 00:58:56;;;;;;;10.80;5.47;;;18.30;67.20;;;;;;5038391;28;20940;-70
2022/08/22 01:01:32;;;;;;;7.20;5.20;;;18.30;66.70;;;;;;5041326;28;20871;-70
2022/08/22 01:04:27;;;;;;;10.43;5.83;;;18.30;66.70;;;;;;5045576;28;20461;-71
2022/08/22 01:07:13;;;;;;;10.30;5.00;;;18.30;66.40;;;;;;5041866;28;20488;-71
2022/08/22 01:10:03;;;;;;;9.63;5.73;;;18.10;66.70;;;;;;5043293;28;20488;-71
2022/08/22 01:12:45;;;;;;;11.00;5.77;;;18.20;66.60;;;;;;5045105;28;20417;-71
2022/08/22 01:15:25;;;;;;;10.03;6.00;;;18.10;66.90;;;;;;5037699;28;20479;-71
2022/08/22 01:17:51;;;;;;;10.80;5.67;;;18.10;66.90;;;;;;5045324;28;20444;-71
2022/08/22 01:20:38;;;;;;;7.93;5.30;;;18.00;67.00;;;;;;5044231;28;20557;-71
2022/08/22 01:23:24;;;;;;;8.50;5.37;;;18.00;67.20;;;;;;5047654;28;20212;-71
2022/08/22 01:26:26;;;;;;;10.43;5.40;;;18.10;67.30;;;;;;5046706;28;20421;-71
2022/08/22 01:29:26;;;;;;;6.70;4.60;;;18.10;67.50;;;;;;5040961;28;20483;-72
2022/08/22 01:32:09;;;;;;;14.33;5.63;;;18.10;67.20;;;;;;5043226;28;20930;-71
2022/08/22 01:34:57;;;;;;;10.47;5.10;;;18.10;67.30;;;;;;5037782;28;20425;-71
2022/08/22 01:37:46;;;;;;;7.30;4.73;;;18.00;66.90;;;;;;5037895;28;20462;-71
2022/08/22 01:40:33;;;;;;;8.40;5.13;;;18.10;66.60;;;;;;5033189;28;20473;-71
2022/08/22 01:43:01;;;;;;;8.77;5.77;;;18.10;66.30;;;;;;5044353;28;20428;-71
2022/08/22 01:45:37;;;;;;;11.33;5.70;;;18.10;66.30;;;;;;5038196;28;20463;-73
2022/08/22 01:48:09;;;;;;;6.70;4.80;;;18.10;66.40;;;;;;5044318;28;20472;-72
2022/08/22 01:50:45;;;;;;;7.97;5.27;;;18.00;66.90;;;;;;5038155;28;20472;-71
2022/08/22 01:53:29;;;;;;;8.77;5.30;;;17.90;67.50;;;;;;5038511;28;20435;-72
2022/08/22 01:56:31;;;;;;;9.73;5.67;;;17.90;67.70;;;;;;5037863;28;20580;-71
2022/08/22 01:59:03;;;;;;;8.00;5.10;;;18.00;67.60;;;;;;5021590;28;20482;-71
2022/08/22 02:01:43;;;;;;;12.87;6.10;;;17.90;67.90;;;;;;5024223;28;20440;-71
2022/08/22 02:04:17;;;;;;;10.70;5.47;;;18.00;68.20;;;;;;5024955;28;20437;-71
2022/08/22 02:06:48;;;;;;;7.03;5.43;;;18.00;67.90;;;;;;5024814;28;21046;-71
2022/08/22 02:09:35;;;;;;;9.77;5.53;;;18.00;68.00;;;;;;5024424;28;20469;-72
2022/08/22 02:12:28;;;;;;;7.40;5.40;;;18.00;68.60;;;;;;5022751;28;20475;-72
2022/08/22 02:14:59;;;;;;;8.10;5.57;;;18.00;68.60;;;;;;5023520;28;20421;-70
2022/08/22 02:17:27;;;;;;;11.10;5.50;;;17.90;68.60;;;;;;5023920;28;20453;-71
2022/08/22 02:20:42;;;;;;;8.77;5.73;;;17.80;68.80;;;;;;5008980;28;20560;-72
2022/08/22 02:23:16;;;;;;;9.67;5.97;;;17.60;69.80;;;;;;4948552;29;20441;-71
2022/08/22 02:26:03;;;;;;;9.10;5.20;;;17.70;69.70;;;;;;4949194;29;20497;-72
2022/08/22 02:29:07;;;;;;;7.43;5.50;;;17.60;69.80;;;;;;4931873;29;20670;-72
2022/08/22 02:31:47;;;;;;;10.20;5.23;;;17.50;68.90;;;;;;4909861;29;20437;-72
2022/08/22 02:34:43;;;;;;;10.80;5.83;;;17.40;70.20;;;;;;4916755;29;20429;-71
2022/08/22 02:37:28;;;;;;;9.53;6.20;;;17.30;70.70;;;;;;4916037;29;20988;-72
2022/08/22 02:40:11;;;;;;;9.37;5.67;;;17.20;71.60;;;;;;4928388;29;20483;-71
2022/08/22 02:42:50;;;;;;;9.73;5.40;;;17.10;71.80;;;;;;4943353;28;20614;-72
2022/08/22 02:45:22;;;;;;;10.53;5.67;;;17.10;72.00;;;;;;4942446;29;21108;-71
2022/08/22 02:47:59;;;;;;;9.07;5.07;;;17.00;72.40;;;;;;4939796;29;20481;-73
2022/08/22 02:50:39;;;;;;;6.43;4.63;;;17.00;72.30;;;;;;4943856;29;20566;-73
2022/08/22 02:53:14;;;;;;;6.33;4.77;;;17.00;72.10;;;;;;4957736;28;20472;-72
2022/08/22 02:55:56;;;;;;;11.13;5.27;;;17.10;71.80;;;;;;4992391;28;20432;-72
2022/08/22 02:58:37;;;;;;;8.00;4.60;;;17.10;71.40;;;;;;4999308;28;20439;-72
2022/08/22 03:01:19;;;;;;;8.53;4.93;;;17.10;71.30;;;;;;4994860;28;20433;-71
2022/08/22 03:03:46;;;;;;;8.43;5.97;;;17.00;71.10;;;;;;4999790;28;20452;-71
2022/08/22 03:06:31;;;;;;;12.37;6.13;;;17.00;71.60;;;;;;5003194;28;21040;-71
2022/08/22 03:09:14;;;;;;;8.63;5.13;;;17.00;72.10;;;;;;5035285;28;20574;-71
2022/08/22 03:11:48;;;;;;;8.90;5.33;;;17.10;72.40;;;;;;5036335;28;20424;-72
2022/08/22 03:14:30;;;;;;;11.00;5.80;;;17.20;72.00;;;;;;5033164;28;20408;-70
2022/08/22 03:17:10;;;;;;;9.23;5.77;;;17.10;72.30;;;;;;5040112;28;20408;-70
2022/08/22 03:19:57;;;;;;;10.30;5.90;;;17.00;72.30;;;;;;5036983;28;20524;-71
2022/08/22 03:22:45;;;;;;;8.10;5.43;;;16.90;72.90;;;;;;5042504;28;20469;-71
2022/08/22 03:25:25;;;;;;;7.87;5.80;;;16.80;73.20;;;;;;5045969;28;20840;-72
2022/08/22 03:28:00;;;;;;;10.87;5.63;;;16.70;73.20;;;;;;5034264;28;20898;-71
2022/08/22 03:30:55;;;;;;;9.50;5.70;;;16.70;72.40;;;;;;5043409;28;20465;-70
2022/08/22 03:33:23;;;;;;;10.47;6.40;;;16.70;72.30;;;;;;5036398;28;20415;-71
2022/08/22 03:36:25;;;;;;;9.70;5.33;;;16.70;72.10;;;;;;5041254;28;20420;-69
2022/08/22 03:39:16;;;;;;;8.30;5.30;;;16.70;72.10;;;;;;5015756;28;20550;-71
2022/08/22 03:42:09;;;;;;;10.23;5.80;;;16.60;72.10;;;;;;5012321;28;20851;-72
2022/08/22 03:44:58;;;;;;;7.63;4.53;;;16.60;72.00;;;;;;5017562;28;20424;-72
2022/08/22 03:47:42;;;;;;;9.37;4.57;;;16.60;72.40;;;;;;5018300;28;20572;-71
2022/08/22 03:50:38;;;;;;;8.17;5.20;;;16.60;72.90;;;;;;5013795;28;21222;-72
2022/08/22 03:53:32;;;;;;;8.47;5.00;;;16.60;72.70;;;;;;4997886;28;20431;-70
2022/08/22 03:56:25;;;;;;;10.97;5.53;;;16.60;73.00;;;;;;5020102;28;21018;-71
2022/08/22 03:59:18;;;;;;;8.50;5.70;;;16.60;73.20;;;;;;5022072;28;20505;-71
2022/08/22 04:01:43;;;;;;;8.70;5.60;;;16.50;73.30;;;;;;5018757;28;20431;-71
2022/08/22 04:04:09;;;;;;;10.53;5.50;;;16.50;73.20;;;;;;5019709;28;20930;-72
2022/08/22 04:06:40;;;;;;;9.53;5.30;;;16.50;73.50;;;;;;5022403;28;20587;-72
2022/08/22 04:09:33;;;;;;;9.37;5.63;;;16.50;73.50;;;;;;5016745;28;20213;-71
2022/08/22 04:12:38;;;;;;;8.13;4.83;;;16.50;73.60;;;;;;5008571;28;20437;-72
2022/08/22 04:15:13;;;;;;;10.60;5.27;;;16.50;73.30;;;;;;5037011;28;20532;-73
2022/08/22 04:17:47;;;;;;;12.70;6.27;;;16.60;73.00;;;;;;5044924;28;21065;-71
2022/08/22 04:20:19;;;;;;;10.27;5.50;;;16.50;73.30;;;;;;5039773;28;20464;-72
2022/08/22 04:23:21;;;;;;;10.30;5.03;;;16.40;73.70;;;;;;5042233;28;20996;-72
2022/08/22 04:25:56;;;;;;;8.60;6.37;;;16.40;74.00;;;;;;5041174;28;20455;-71
2022/08/22 04:28:29;;;;;;;16.80;6.03;;;16.40;74.30;;;;;;5041002;28;20478;-71
2022/08/22 04:31:07;;;;;;;10.17;5.90;;;16.40;74.60;;;;;;5040804;28;20428;-72
2022/08/22 04:33:46;;;;;;;9.80;6.40;;;16.30;75.10;;;;;;5036619;28;20432;-72
2022/08/22 04:36:33;;;;;;;9.07;6.00;;;16.20;75.40;;;;;;5040629;28;20427;-71
2022/08/22 04:39:19;;;;;;;8.40;6.23;;;16.20;75.70;;;;;;5037354;28;20470;-72
2022/08/22 04:42:07;;;;;;;7.47;5.40;;;16.20;75.80;;;;;;5044778;28;20419;-71
2022/08/22 04:44:51;;;;;;;9.37;6.10;;;16.20;75.90;;;;;;5034893;28;20412;-72
2022/08/22 04:47:29;;;;;;;9.40;5.73;;;16.20;75.90;;;;;;5035734;28;21381;-71
2022/08/22 04:50:04;;;;;;;7.70;5.10;;;16.10;75.80;;;;;;5042270;28;20999;-71
2022/08/22 04:53:03;;;;;;;8.70;5.87;;;16.10;75.70;;;;;;5036290;28;20429;-71
2022/08/22 04:55:54;;;;;;;12.07;5.97;;;16.20;75.40;;;;;;5037032;28;20436;-72
2022/08/22 04:59:02;;;;;;;10.93;6.30;;;16.10;75.40;;;;;;5038769;28;20422;-71
2022/08/22 05:01:48;;;;;;;11.83;6.20;;;16.10;76.20;;;;;;5023324;28;20431;-72
2022/08/22 05:04:42;;;;;;;12.17;6.50;;;16.20;76.10;;;;;;5030138;28;20458;-72
2022/08/22 05:07:14;;;;;;;15.40;10.50;;;16.30;76.10;;;;;;5015625;28;20506;-72
2022/08/22 05:09:58;;;;;;;9.97;6.37;;;16.20;76.10;;;;;;5020130;28;20478;-71
2022/08/22 05:12:34;;;;;;;9.10;5.87;;;16.20;76.50;;;;;;5017130;28;20420;-72
2022/08/22 05:15:07;;;;;;;14.87;6.67;;;16.30;76.80;;;;;;5018249;28;20420;-73
2022/08/22 05:17:34;;;;;;;10.03;6.37;;;16.50;76.70;;;;;;5019793;28;20486;-72
2022/08/22 05:20:07;;;;;;;10.33;5.23;;;16.60;75.80;;;;;;5017448;28;21203;-71
2022/08/22 05:22:39;;;;;;;9.60;5.47;;;16.60;75.70;;;;;;5021392;28;20436;-71
2022/08/22 05:25:10;;;;;;;10.63;6.23;;;16.70;75.70;;;;;;5012527;28;20441;-69
2022/08/22 05:27:46;;;;;;;10.57;6.20;;;16.80;75.50;;;;;;5023043;28;20911;-72
2022/08/22 05:30:20;;;;;;;9.10;5.90;;;16.80;75.50;;;;;;5010974;28;20580;-72
2022/08/22 05:33:10;;;;;;;9.20;5.73;;;16.80;75.50;;;;;;5039355;28;20450;-71
2022/08/22 05:35:43;;;;;;;13.20;5.90;;;16.80;75.40;;;;;;5041027;28;20419;-71
2022/08/22 05:38:14;;;;;;;8.77;6.40;;;16.80;75.10;;;;;;5043390;28;20430;-71
2022/08/22 05:40:41;;;;;;;8.67;5.97;;;16.80;75.40;;;;;;5038877;28;20484;-71
2022/08/22 05:43:11;;;;;;;12.07;5.30;;;16.80;75.50;;;;;;5043471;28;20731;-71
2022/08/22 05:45:43;;;;;;;11.13;5.90;;;16.80;75.70;;;;;;5037367;28;20431;-72
2022/08/22 05:48:16;;;;;;;11.67;6.40;;;16.80;75.80;;;;;;5034262;28;20587;-71
2022/08/22 05:50:55;;;;;;;14.10;6.20;;;16.80;75.80;;;;;;5040936;28;20467;-72
2022/08/22 05:53:30;;;;;;;12.83;6.23;;;16.80;75.80;;;;;;5041067;28;20427;-70
2022/08/22 05:55:59;;;;;;;12.00;6.37;;;16.90;75.80;;;;;;5045537;28;21423;-71
2022/08/22 05:58:36;;;;;;;11.13;6.73;;;16.90;75.80;;;;;;5038456;28;20428;-73
2022/08/22 06:01:23;;;;;;;14.50;7.57;;;17.00;75.70;;;;;;5044444;28;20442;-71
2022/08/22 06:04:12;;;;;;;9.77;6.40;;;17.10;75.20;;;;;;5041053;28;20435;-72
2022/08/22 06:06:53;;;;;;;12.70;7.00;;;17.10;74.50;;;;;;5037175;28;20432;-71
2022/08/22 06:09:46;;;;;;;11.20;6.60;;;17.10;74.30;;;;;;5040509;28;20543;-72
2022/08/22 06:12:20;;;;;;;14.73;8.00;;;17.20;74.50;;;;;;5022422;28;20458;-72
2022/08/22 06:15:17;;;;;;;12.70;7.33;;;17.30;74.60;;;;;;5041788;28;20418;-72
2022/08/22 06:17:54;;;;;;;13.53;6.90;;;17.40;74.60;;;;;;5031061;28;21056;-70
2022/08/22 06:20:28;;;;;;;13.50;7.73;;;17.40;74.80;;;;;;5037091;28;20476;-71
2022/08/22 06:22:59;;;;;;;18.03;8.10;;;17.50;74.60;;;;;;5039340;28;20423;-72
2022/08/22 06:25:31;;;;;;;16.83;8.00;;;17.50;74.30;;;;;;5041878;28;20408;-73
2022/08/22 06:28:08;;;;;;;14.20;7.43;;;17.50;74.60;;;;;;5042781;28;20459;-72
2022/08/22 06:30:38;;;;;;;11.10;7.57;;;17.60;74.50;;;;;;5035741;28;20455;-71
2022/08/22 06:33:11;;;;;;;12.87;7.77;;;17.70;74.50;;;;;;5040683;28;20421;-70
2022/08/22 06:38:34;;;;;;;14.27;8.00;;;17.90;74.50;;;;;;5038785;28;20930;-71
2022/08/22 06:41:05;;;;;;;11.30;7.30;;;18.00;72.70;;;;;;5043529;28;20467;-72
2022/08/22 06:43:42;;;;;;;15.00;7.03;;;18.00;72.30;;;;;;5043390;28;20852;-74
2022/08/22 06:46:09;;;;;;;14.30;7.30;;;18.10;72.30;;;;;;5047491;28;20438;-71
2022/08/22 06:48:36;;;;;;;9.57;6.87;;;18.10;72.90;;;;;;5040133;28;20511;-72
2022/08/22 06:51:05;;;;;;;11.40;7.53;;;18.10;72.60;;;;;;5040646;28;20421;-73
2022/08/22 06:53:39;;;;;;;13.00;7.77;;;18.20;72.40;;;;;;5039613;28;20509;-72
2022/08/22 06:56:06;;;;;;;10.97;7.30;;;18.30;72.60;;;;;;5039685;28;20989;-70
2022/08/22 06:58:40;;;;;;;13.83;8.03;;;18.30;72.40;;;;;;5037450;28;20455;-74
2022/08/22 07:01:11;;;;;;;12.07;6.90;;;18.40;71.80;;;;;;5038603;28;20435;-73
2022/08/22 07:03:42;;;;;;;11.40;6.93;;;18.50;71.40;;;;;;5037095;28;20956;-71
2022/08/22 07:06:14;;;;;;;11.03;6.37;;;18.50;71.70;;;;;;5039914;28;20419;-71
2022/08/22 07:08:41;;;;;;;12.53;7.50;;;18.60;71.40;;;;;;5031407;28;20564;-71
2022/08/22 07:11:14;;;;;;;11.20;7.23;;;18.70;71.00;;;;;;5044919;28;20429;-71
2022/08/22 07:13:44;;;;;;;10.93;6.93;;;18.70;70.80;;;;;;5034996;28;20430;-74
2022/08/22 07:16:10;;;;;;;9.73;6.67;;;18.90;70.40;;;;;;5042255;28;20427;-72
2022/08/22 07:18:47;;;;;;;14.00;6.73;;;18.90;70.40;;;;;;5030655;28;20450;-71
2022/08/22 07:21:26;;;;;;;10.03;5.67;;;19.00;70.50;;;;;;5036505;28;20415;-72
2022/08/22 07:23:54;;;;;;;10.50;6.00;;;19.20;69.50;;;;;;5036237;28;20530;-72
2022/08/22 07:26:31;;;;;;;8.10;5.03;;;19.30;69.10;;;;;;5037982;28;20423;-71
2022/08/22 07:29:02;;;;;;;11.97;5.70;;;19.40;69.10;;;;;;5033413;28;20482;-70
2022/08/22 07:31:28;;;;;;;9.97;5.47;;;19.50;68.80;;;;;;5040788;28;20431;-73
2022/08/22 07:34:17;;;;;;;12.47;7.77;;;19.60;68.30;;;;;;5042219;28;20430;-71
2022/08/22 07:36:57;;;;;;;6.53;4.73;;;19.80;67.30;;;;;;5045097;28;20255;-72
2022/08/22 07:39:50;;;;;;;10.80;5.87;;;19.90;66.30;;;;;;5048036;28;20516;-71
2022/08/22 07:42:20;;;;;;;7.80;5.50;;;20.00;66.30;;;;;;5039589;28;20445;-73
2022/08/22 07:45:05;;;;;;;8.30;5.10;;;20.10;65.80;;;;;;5044252;28;20462;-72
2022/08/22 07:47:57;;;;;;;8.77;5.53;;;20.20;65.60;;;;;;5047351;28;20489;-74
2022/08/22 07:50:28;;;;;;;9.60;5.03;;;20.30;65.30;;;;;;5042102;28;20518;-73
2022/08/22 07:53:00;;;;;;;6.20;3.80;;;20.40;65.00;;;;;;5050788;28;20436;-70
2022/08/22 07:55:27;;;;;;;12.60;4.87;;;20.60;64.80;;;;;;5037389;28;20493;-70
2022/08/22 07:58:02;;;;;;;9.23;5.00;;;20.60;64.70;;;;;;5045878;28;20439;-70
2022/08/22 08:00:30;;;;;;;9.37;4.90;;;20.60;64.80;;;;;;5042485;28;20460;-71
2022/08/22 08:03:01;;;;;;;9.20;4.70;;;20.70;64.80;;;;;;5054226;28;20441;-70
2022/08/22 08:05:31;;;;;;;11.00;5.20;;;20.80;64.20;;;;;;5048656;28;20433;-71
2022/08/22 08:07:58;;;;;;;8.43;4.50;;;21.00;64.10;;;;;;5047111;28;20465;-70
2022/08/22 08:10:35;;;;;;;8.00;5.40;;;21.10;63.90;;;;;;5044372;28;20529;-72
2022/08/22 08:13:06;;;;;;;7.07;5.00;;;21.10;64.40;;;;;;5042924;28;20494;-71
2022/08/22 08:15:34;;;;;;;9.67;5.13;;;21.20;64.40;;;;;;5034935;28;20652;-71
2022/08/22 08:18:09;;;;;;;7.37;5.13;;;21.30;63.90;;;;;;5041320;28;20443;-74
2022/08/22 08:20:36;;;;;;;9.10;5.10;;;21.40;63.50;;;;;;5045407;28;20469;-72
2022/08/22 08:23:05;;;;;;;7.73;4.80;;;21.50;63.20;;;;;;5041989;28;20426;-70
2022/08/22 08:25:36;;;;;;;9.93;4.73;;;21.60;63.10;;;;;;5047766;28;20457;-70
2022/08/22 08:31:06;;;;;;;8.93;5.10;;;21.90;62.50;;;;;;5045286;28;20512;-71
2022/08/22 08:33:34;;;;;;;9.23;5.70;;;22.00;61.50;;;;;;5035745;28;20506;-71
2022/08/22 08:36:31;;;;;;;9.07;5.93;;;22.10;61.70;;;;;;5042190;28;21036;-71
2022/08/22 08:39:17;;;;;;;6.80;4.80;;;22.10;62.00;;;;;;5043056;28;20910;-70
2022/08/22 08:42:01;;;;;;;6.77;5.40;;;22.10;62.00;;;;;;5038367;28;20848;-72
2022/08/22 08:44:37;;;;;;;10.27;5.90;;;22.20;61.70;;;;;;5042436;28;20439;-71
2022/08/22 08:47:13;;;;;;;9.20;5.60;;;22.30;61.60;;;;;;5040373;28;20565;-71
2022/08/22 08:50:11;;;;;;;8.37;5.10;;;22.40;61.60;;;;;;5046272;28;20541;-71
2022/08/22 08:52:57;;;;;;;7.97;5.27;;;22.60;61.30;;;;;;5026394;28;20486;-72
2022/08/22 08:55:26;;;;;;;7.60;5.33;;;22.80;61.00;;;;;;5030422;28;20431;-71
2022/08/22 08:58:49;;;;;;;9.40;5.77;;;23.00;60.30;;;;;;5032202;28;20460;-70
2022/08/22 09:01:40;;;;;;;10.80;6.47;;;23.00;60.40;;;;;;4959099;28;20552;-71
2022/08/22 09:04:41;;;;;;;8.53;5.40;;;23.00;60.00;;;;;;5025817;28;20468;-72
2022/08/22 09:07:15;;;;;;;9.87;6.00;;;23.00;60.00;;;;;;5018666;28;20482;-73
2022/08/22 09:09:43;;;;;;;8.60;5.90;;;23.10;60.10;;;;;;5025134;28;20469;-72
2022/08/22 09:12:40;;;;;;;10.10;5.67;;;23.20;60.00;;;;;;5020868;28;20462;-71
2022/08/22 09:15:23;;;;;;;7.10;5.40;;;23.30;59.70;;;;;;5025045;28;20433;-72
2022/08/22 09:17:54;;;;;;;8.23;5.40;;;23.40;59.30;;;;;;5027551;28;20854;-71
2022/08/22 09:20:35;;;;;;;7.30;5.20;;;23.50;59.20;;;;;;5025103;28;20487;-70
2022/08/22 09:23:23;;;;;;;7.90;5.47;;;23.60;58.90;;;;;;5025653;28;20535;-71
2022/08/22 09:25:55;;;;;;;7.63;5.40;;;23.70;58.80;;;;;;5025922;28;20426;-71
2022/08/22 09:28:38;;;;;;;10.23;5.23;;;23.80;58.80;;;;;;5031109;28;20479;-72
2022/08/22 09:31:19;;;;;;;8.47;5.83;;;23.90;57.70;;;;;;5040184;28;20776;-73
2022/08/22 09:33:53;;;;;;;8.80;5.93;;;23.90;57.70;;;;;;5035541;28;20464;-73
2022/08/22 09:36:54;;;;;;;6.60;5.27;;;24.10;58.10;;;;;;5037574;28;20492;-72
2022/08/22 09:39:44;;;;;;;7.47;4.90;;;24.10;57.70;;;;;;5029936;28;20465;-71
2022/08/22 09:42:30;;;;;;;7.33;5.30;;;24.30;56.40;;;;;;5041019;28;20464;-72
2022/08/22 09:45:33;;;;;;;7.53;5.20;;;24.30;55.70;;;;;;5037334;28;20922;-72
2022/08/22 09:48:07;;;;;;;7.70;5.40;;;24.40;55.70;;;;;;5035191;28;20954;-71
2022/08/22 09:50:48;;;;;;;9.30;5.50;;;24.50;56.20;;;;;;5033811;28;20922;-72
2022/08/22 09:53:39;;;;;;;8.80;5.87;;;24.70;56.50;;;;;;5037352;28;20472;-72
2022/08/22 09:56:15;;;;;;;7.43;5.50;;;24.60;56.90;;;;;;5039600;28;20413;-71
2022/08/22 09:58:43;;;;;;;5.73;5.07;;;24.60;57.00;;;;;;5043546;28;20860;-72
2022/08/22 10:01:50;;;;;;;8.17;4.83;;;24.80;55.00;;;;;;5042315;28;20419;-71
2022/08/22 10:04:28;;;;;;;7.40;5.40;;;24.80;52.60;;;;;;5026900;28;20695;-71
2022/08/22 10:07:05;;;;;;;9.60;5.20;;;24.70;51.30;;;;;;5041312;28;20950;-71
2022/08/22 10:09:50;;;;;;;6.30;5.10;;;24.70;51.00;;;;;;5041594;28;20532;-71
2022/08/22 10:12:43;;;;;;;9.77;5.70;;;24.70;50.60;;;;;;5037031;28;20731;-70
2022/08/22 10:15:34;;;;;;;12.27;4.60;;;24.80;50.70;;;;;;5036953;28;20893;-72
2022/08/22 10:18:21;;;;;;;8.40;4.70;;;25.00;50.10;;;;;;5038953;28;20473;-72
2022/08/22 10:21:08;;;;;;;8.57;5.03;;;25.10;50.50;;;;;;5037112;28;20452;-73
2022/08/22 10:23:48;;;;;;;9.53;4.33;;;25.20;49.50;;;;;;5037055;28;20864;-73
2022/08/22 10:26:33;;;;;;;10.40;5.40;;;25.30;50.20;;;;;;5036655;28;20508;-72
2022/08/22 10:29:08;;;;;;;8.57;5.43;;;25.40;51.00;;;;;;5043349;28;20940;-72
2022/08/22 10:31:43;;;;;;;8.53;4.83;;;25.30;49.10;;;;;;5038723;28;20442;-72
2022/08/22 10:34:15;;;;;;;7.40;4.60;;;25.30;49.70;;;;;;5041112;28;20456;-71
2022/08/22 10:36:55;;;;;;;9.73;5.47;;;25.40;49.10;;;;;;5033556;28;20528;-73
2022/08/22 10:39:25;;;;;;;6.83;5.03;;;25.40;48.70;;;;;;5039223;28;20973;-71
2022/08/22 10:42:18;;;;;;;7.10;5.13;;;25.50;47.80;;;;;;5046488;28;20536;-73
2022/08/22 10:45:14;;;;;;;6.53;4.40;;;25.60;47.00;;;;;;5039114;28;20421;-72
2022/08/22 10:47:57;;;;;;;8.50;4.40;;;25.90;45.80;;;;;;5036445;28;20476;-73
2022/08/22 10:50:32;;;;;;;7.80;5.40;;;26.50;44.90;;;;;;5041977;28;20534;-71
2022/08/22 10:56:01;;;;;;;4.97;4.67;;;27.30;42.80;;;;;;5048223;28;20840;-72
2022/08/22 10:58:31;;;;;;;8.10;4.50;;;27.20;43.90;;;;;;5037707;28;20488;-72
2022/08/22 11:01:03;;;;;;;7.90;5.23;;;27.40;43.70;;;;;;5041426;28;20439;-70
2022/08/22 11:03:45;;;;;;;10.17;5.00;;;27.60;42.30;;;;;;5035124;28;20424;-71
2022/08/22 11:06:16;;;;;;;8.03;5.90;;;27.70;40.60;;;;;;5045152;28;20430;-72
2022/08/22 11:08:51;;;;;;;8.90;5.13;;;28.00;41.80;;;;;;5038203;28;20498;-71
2022/08/22 11:11:36;;;;;;;6.23;4.17;;;27.90;41.10;;;;;;5040680;28;20427;-71
2022/08/22 11:14:23;;;;;;;10.77;4.60;;;28.30;40.30;;;;;;5044383;28;20427;-73
2022/08/22 11:17:26;;;;;;;6.63;4.50;;;28.60;39.60;;;;;;5041838;28;20424;-71
2022/08/22 11:20:10;;;;;;;6.20;4.77;;;29.10;39.40;;;;;;5035028;28;20936;-70
2022/08/22 11:22:54;;;;;;;7.50;5.33;;;28.80;39.10;;;;;;5037726;28;20449;-71
2022/08/22 11:25:45;;;;;;;8.53;4.87;;;28.20;40.30;;;;;;5036616;28;20499;-72
2022/08/22 11:28:42;;;;;;;8.87;5.00;;;28.20;40.70;;;;;;5045559;28;20467;-73
2022/08/22 11:31:29;;;;;;;6.33;4.57;;;28.40;40.30;;;;;;5036411;28;20424;-71
2022/08/22 11:34:03;;;;;;;6.30;4.40;;;28.80;39.20;;;;;;5045315;28;20427;-72
2022/08/22 11:36:43;;;;;;;7.90;5.17;;;28.60;40.00;;;;;;5043401;28;20427;-71
2022/08/22 11:39:22;;;;;;;10.30;5.70;;;28.50;40.80;;;;;;5036880;28;20940;-71
2022/08/22 11:41:57;;;;;;;6.77;5.03;;;28.00;41.80;;;;;;5040071;28;20446;-72
2022/08/22 11:44:54;;;;;;;7.80;4.93;;;27.70;42.30;;;;;;5037804;28;20419;-72
2022/08/22 11:47:28;;;;;;;7.50;5.27;;;27.90;41.20;;;;;;5036263;28;20997;-71
2022/08/22 11:49:54;;;;;;;8.97;5.30;;;28.10;41.40;;;;;;5038086;28;20463;-70
2022/08/22 11:52:29;;;;;;;10.40;5.57;;;27.60;40.40;;;;;;5040909;28;20939;-72
2022/08/22 11:55:34;;;;;;;5.20;4.20;;;27.60;42.00;;;;;;5035634;28;20512;-70
2022/08/22 11:58:25;;;;;;;7.67;4.77;;;27.50;38.60;;;;;;5038595;28;20521;-71
2022/08/22 12:00:54;;;;;;;6.57;4.13;;;27.20;39.20;;;;;;5045150;28;20449;-72
2022/08/22 12:03:25;;;;;;;8.17;4.63;;;27.30;39.90;;;;;;5042154;28;20423;-71
2022/08/22 12:06:28;;;;;;;12.30;5.23;;;26.90;40.70;;;;;;5039498;28;20430;-72
2022/08/22 12:09:02;;;;;;;7.13;5.10;;;26.70;42.40;;;;;;5038024;28;20481;-72
2022/08/22 12:11:52;;;;;;;8.63;5.43;;;26.50;43.50;;;;;;5042031;28;20993;-72
2022/08/22 12:14:21;;;;;;;8.50;5.50;;;26.20;45.40;;;;;;5043519;28;20424;-73
2022/08/22 12:16:52;;;;;;;10.20;5.80;;;26.30;45.50;;;;;;5041396;28;20434;-72
2022/08/22 12:19:53;;;;;;;7.50;4.90;;;26.20;45.50;;;;;;5048357;28;20538;-72
2022/08/22 12:22:39;;;;;;;7.73;5.20;;;26.10;45.50;;;;;;5052874;28;20431;-71
2022/08/22 12:25:23;;;;;;;8.10;5.10;;;26.30;45.50;;;;;;5053406;28;20438;-72
2022/08/22 12:28:14;;;;;;;6.90;5.40;;;26.20;45.80;;;;;;5036072;28;20617;-70
2022/08/22 12:30:39;;;;;;;7.73;5.23;;;26.20;46.10;;;;;;5039478;28;20454;-69
2022/08/22 12:33:09;;;;;;;8.93;5.13;;;26.60;45.30;;;;;;5032729;28;20853;-72
2022/08/22 12:36:06;;;;;;;7.93;6.60;;;27.00;44.60;;;;;;5041476;28;20669;-75
2022/08/22 12:38:37;;;;;;;12.73;5.20;;;27.30;43.70;;;;;;5023242;28;20513;-72
2022/08/22 12:41:31;;;;;;;6.63;5.10;;;27.10;43.90;;;;;;5027568;28;20451;-71
2022/08/22 12:44:17;;;;;;;7.47;5.27;;;27.10;44.20;;;;;;5027402;28;20958;-73
2022/08/22 12:46:54;;;;;;;8.83;5.30;;;27.60;43.00;;;;;;5024547;28;20542;-72
2022/08/22 12:49:46;;;;;;;9.73;5.80;;;27.50;43.10;;;;;;5022624;28;20507;-74
2022/08/22 12:52:49;;;;;;;6.60;4.67;;;27.50;42.80;;;;;;5028730;28;20412;-72
2022/08/22 12:55:35;;;;;;;8.10;5.53;;;27.20;43.50;;;;;;5021050;28;20419;-71
2022/08/22 12:58:11;;;;;;;7.07;5.20;;;27.40;43.10;;;;;;5028127;28;20519;-75
2022/08/22 13:00:42;;;;;;;6.80;5.40;;;27.60;42.60;;;;;;5020487;28;20488;-73
2022/08/22 13:03:17;;;;;;;8.47;5.20;;;27.90;41.90;;;;;;5028417;28;20467;-70
2022/08/22 13:05:46;;;;;;;9.43;4.80;;;28.00;41.20;;;;;;5028123;28;20451;-72
2022/08/22 13:08:21;;;;;;;5.83;4.70;;;27.80;41.20;;;;;;5026395;28;20478;-71
2022/08/22 13:11:20;;;;;;;5.67;4.57;;;27.90;41.10;;;;;;5024791;28;20846;-70
2022/08/22 13:13:54;;;;;;;5.93;4.17;;;27.90;41.10;;;;;;4969961;28;20434;-71
2022/08/22 13:16:22;;;;;;;5.33;4.80;;;28.30;41.10;;;;;;4999657;28;20552;-71
2022/08/22 13:19:03;;;;;;;7.93;5.53;;;28.80;39.50;;;;;;4999200;28;20500;-71
2022/08/22 13:21:31;;;;;;;7.30;4.70;;;28.50;39.80;;;;;;5002527;28;20432;-71
2022/08/22 13:24:04;;;;;;;5.93;4.73;;;28.70;39.40;;;;;;5003373;28;20887;-72
2022/08/22 13:26:32;;;;;;;9.13;5.00;;;28.80;39.10;;;;;;5001574;28;20475;-72
2022/08/22 13:29:03;;;;;;;4.97;4.20;;;28.50;39.50;;;;;;5007095;28;21084;-71
2022/08/22 13:31:35;;;;;;;5.63;4.60;;;28.40;39.10;;;;;;5000586;28;20956;-71
2022/08/22 13:34:10;;;;;;;6.83;5.10;;;28.20;39.50;;;;;;4992764;28;20499;-72
2022/08/22 13:36:58;;;;;;;5.67;4.50;;;28.30;39.10;;;;;;5000801;28;20523;-71
2022/08/22 13:39:23;;;;;;;5.73;4.90;;;28.10;39.40;;;;;;5001493;28;20468;-72
2022/08/22 13:41:53;;;;;;;5.83;4.70;;;27.60;40.30;;;;;;5003082;28;20452;-71
2022/08/22 13:44:27;;;;;;;6.13;4.60;;;27.20;41.60;;;;;;5004068;28;20201;-71
2022/08/22 13:47:00;;;;;;;8.57;5.03;;;27.20;41.50;;;;;;5002450;28;20577;-70
2022/08/22 13:49:37;;;;;;;8.37;5.33;;;27.10;42.00;;;;;;5011702;28;20471;-70
2022/08/22 13:52:24;;;;;;;6.90;5.17;;;27.00;42.20;;;;;;5035700;28;20509;-72
2022/08/22 13:55:11;;;;;;;6.53;5.10;;;27.20;42.20;;;;;;5048669;28;20512;-72
2022/08/22 13:57:40;;;;;;;7.53;5.13;;;27.40;42.00;;;;;;5044470;28;20955;-72
2022/08/22 14:00:18;;;;;;;5.37;4.23;;;27.50;41.50;;;;;;5035448;28;20566;-71